Keighley, United Kingdom
Current Conditions -  °F | °C
As of 9:20 AM on Wednesday 28 Jan 2015 (Local Time) from EGNM Reporting Station
Light Rain Light Rain  
Wind Chill: 28°   Ceiling: Unl
Heat Index: 39°   Visibility: 6mi
Dew Point: 37°   Wind: 24mph
Humidity: 93%   Direction: 270°W
Pressure: 29.32"   Gusts: 38mph
Location:  53.87°N, 1.91°W
Report Text: EGNM 280920Z 27021G33KT 250V310 9999 -RA FEW008 SCT016 04/03 Q0993
Loading
Personal Weather Stations






























Interactive Weather Map New forecast layout! Learn more

10-Day Weather Forecast

Advertisements
Track Severe Weather on mobile